Time;durP1;ratioP1;P1;durP2;ratioP2;P2;SDS_P1;SDS_P2;PMS_P1;PMS_P2;Temp;Humidity;BMP_temperature;BMP_pressure;BME280_temperature;BME280_humidity;BME280_pressure;Samples;Min_cycle;Max_cycle;Signal;HPM_P1;HPM_P2
2023/09/27 00:01:21;;;;;;;4.35;1.85;;;;;;;;;;5096273;28;20020;-80
2023/09/27 00:03:47;;;;;;;3.65;1.75;;;;;;;;;;5095862;28;20483;-81
2023/09/27 00:06:14;;;;;;;3.65;1.80;;;;;;;;;;5094787;28;20027;-82
2023/09/27 00:08:41;;;;;;;4.93;2.08;;;;;;;;;;5096215;28;20064;-80
2023/09/27 00:11:07;;;;;;;5.00;1.73;;;;;;;;;;5094302;28;20379;-82
2023/09/27 00:13:33;;;;;;;11.30;2.00;;;;;;;;;;5094718;28;20016;-82
2023/09/27 00:15:59;;;;;;;3.40;1.88;;;;;;;;;;5094484;28;20490;-81
2023/09/27 00:18:25;;;;;;;2.88;1.63;;;;;;;;;;5094568;28;20048;-80
2023/09/27 00:20:52;;;;;;;3.05;1.85;;;;;;;;;;5094752;28;20467;-80
2023/09/27 00:23:18;;;;;;;3.15;1.80;;;;;;;;;;5095477;28;20597;-82
2023/09/27 00:25:44;;;;;;;5.13;1.80;;;;;;;;;;5094519;28;20035;-80
2023/09/27 00:28:10;;;;;;;4.70;1.75;;;;;;;;;;5094410;28;20024;-81
2023/09/27 00:30:36;;;;;;;3.47;1.95;;;;;;;;;;5094082;28;20024;-80
2023/09/27 00:33:02;;;;;;;3.15;1.65;;;;;;;;;;5094948;28;20047;-81
2023/09/27 00:35:29;;;;;;;3.05;1.60;;;;;;;;;;5095707;28;20028;-79
2023/09/27 00:37:55;;;;;;;6.47;1.90;;;;;;;;;;5093985;28;20027;-82
2023/09/27 00:40:24;;;;;;;3.83;1.60;;;;;;;;;;5095035;28;20442;-81
2023/09/27 00:42:51;;;;;;;3.80;1.70;;;;;;;;;;5094141;28;20150;-79
2023/09/27 00:45:18;;;;;;;6.00;2.28;;;;;;;;;;5095453;28;20161;-81
2023/09/27 00:47:44;;;;;;;8.90;2.10;;;;;;;;;;5094040;28;20028;-79
2023/09/27 00:50:10;;;;;;;5.88;1.77;;;;;;;;;;5093961;28;20039;-79
2023/09/27 00:52:38;;;;;;;3.53;1.77;;;;;;;;;;5092908;28;20031;-82
2023/09/27 00:55:04;;;;;;;4.53;2.22;;;;;;;;;;5094334;28;20372;-81
2023/09/27 00:57:30;;;;;;;5.25;2.17;;;;;;;;;;5093713;28;20482;-80
2023/09/27 00:59:57;;;;;;;3.28;1.90;;;;;;;;;;5093482;28;20418;-80
2023/09/27 01:02:23;;;;;;;3.00;1.70;;;;;;;;;;5093732;28;20020;-80
2023/09/27 01:04:50;;;;;;;8.45;2.25;;;;;;;;;;5093832;28;20035;-81
2023/09/27 01:07:16;;;;;;;5.57;1.83;;;;;;;;;;5093852;28;20035;-80
2023/09/27 01:09:42;;;;;;;3.67;2.08;;;;;;;;;;5094597;28;20100;-80
2023/09/27 01:12:08;;;;;;;5.63;2.17;;;;;;;;;;5093554;28;20039;-82
2023/09/27 01:14:34;;;;;;;8.27;1.85;;;;;;;;;;5094252;28;20024;-80
2023/09/27 01:17:10;;;;;;;5.25;2.30;;;;;;;;;;5094129;28;20031;-81
2023/09/27 01:19:38;;;;;;;8.10;1.92;;;;;;;;;;5093402;28;20500;-80
2023/09/27 01:22:04;;;;;;;3.97;2.15;;;;;;;;;;5093402;28;20024;-81
2023/09/27 01:24:31;;;;;;;3.90;1.98;;;;;;;;;;5093448;28;20020;-81
2023/09/27 01:26:58;;;;;;;3.97;1.77;;;;;;;;;;5092950;28;20024;-80
2023/09/27 01:29:24;;;;;;;6.15;1.58;;;;;;;;;;5093645;28;20459;-81
2023/09/27 01:31:50;;;;;;;3.08;1.70;;;;;;;;;;5093416;28;20024;-79
2023/09/27 01:34:16;;;;;;;4.57;1.83;;;;;;;;;;5092964;28;20031;-81
2023/09/27 01:36:42;;;;;;;4.18;2.05;;;;;;;;;;5093265;28;20435;-81
2023/09/27 01:39:09;;;;;;;2.65;1.58;;;;;;;;;;5094607;28;20102;-81
2023/09/27 01:41:35;;;;;;;4.70;2.00;;;;;;;;;;5092700;28;20024;-81
2023/09/27 01:44:01;;;;;;;3.42;1.80;;;;;;;;;;5093540;28;20114;-80
2023/09/27 01:46:27;;;;;;;3.08;1.77;;;;;;;;;;5093027;28;20028;-80
2023/09/27 01:48:53;;;;;;;4.82;2.00;;;;;;;;;;5092665;28;20422;-81
2023/09/27 01:51:19;;;;;;;3.80;1.63;;;;;;;;;;5093465;28;20357;-80
2023/09/27 01:53:45;;;;;;;10.00;2.15;;;;;;;;;;5092937;28;20074;-83
2023/09/27 01:56:11;;;;;;;5.75;2.10;;;;;;;;;;5093622;28;20333;-81
2023/09/27 01:58:37;;;;;;;4.18;1.73;;;;;;;;;;5092916;28;20027;-81
2023/09/27 02:01:04;;;;;;;4.40;1.83;;;;;;;;;;5092684;28;20494;-82
2023/09/27 02:03:30;;;;;;;6.25;2.10;;;;;;;;;;5092924;28;20024;-80
2023/09/27 02:05:57;;;;;;;3.80;1.77;;;;;;;;;;5093459;28;20032;-81
2023/09/27 02:08:24;;;;;;;4.75;2.03;;;;;;;;;;5092499;28;20024;-81
2023/09/27 02:10:51;;;;;;;3.85;1.83;;;;;;;;;;5096091;28;20024;-81
2023/09/27 02:13:17;;;;;;;3.75;1.80;;;;;;;;;;5093598;28;20421;-81
2023/09/27 02:15:43;;;;;;;4.25;2.00;;;;;;;;;;5093680;28;20361;-81
2023/09/27 02:18:09;;;;;;;3.70;2.17;;;;;;;;;;5092692;28;20024;-80
2023/09/27 02:20:36;;;;;;;2.88;1.63;;;;;;;;;;5092889;28;20031;-81
2023/09/27 02:23:02;;;;;;;6.32;2.13;;;;;;;;;;5092422;28;20027;-80
2023/09/27 02:25:28;;;;;;;7.18;1.83;;;;;;;;;;5092726;28;20024;-81
2023/09/27 02:27:54;;;;;;;4.63;2.22;;;;;;;;;;5092569;28;20075;-81
2023/09/27 02:30:20;;;;;;;3.55;1.90;;;;;;;;;;5092414;28;20028;-81
2023/09/27 02:32:47;;;;;;;5.63;2.10;;;;;;;;;;5093832;28;20059;-80
2023/09/27 02:35:13;;;;;;;3.75;1.90;;;;;;;;;;5092694;28;20420;-80
2023/09/27 02:37:40;;;;;;;5.82;2.20;;;;;;;;;;5092213;28;20460;-80
2023/09/27 02:40:13;;;;;;;4.35;1.88;;;;;;;;;;5092486;28;20024;-79
2023/09/27 02:42:40;;;;;;;5.88;2.10;;;;;;;;;;5093175;28;20165;-81
2023/09/27 02:45:07;;;;;;;3.42;1.73;;;;;;;;;;5092386;28;20024;-79
2023/09/27 02:47:34;;;;;;;5.40;1.88;;;;;;;;;;5092388;28;20031;-81
2023/09/27 02:50:00;;;;;;;4.30;1.90;;;;;;;;;;5092170;28;20035;-81
2023/09/27 02:52:26;;;;;;;3.40;1.85;;;;;;;;;;5093537;28;20035;-81
2023/09/27 02:54:52;;;;;;;3.70;2.17;;;;;;;;;;5092929;28;20119;-81
2023/09/27 02:57:19;;;;;;;3.65;1.80;;;;;;;;;;5092019;28;20031;-82
2023/09/27 02:59:46;;;;;;;5.15;2.17;;;;;;;;;;5093183;28;20013;-81
2023/09/27 03:02:13;;;;;;;3.90;1.85;;;;;;;;;;5092405;28;20027;-81
2023/09/27 03:04:40;;;;;;;3.80;1.63;;;;;;;;;;5092659;28;20380;-80
2023/09/27 03:07:08;;;;;;;3.90;2.08;;;;;;;;;;5116496;28;20043;-78
2023/09/27 03:09:36;;;;;;;3.42;1.80;;;;;;;;;;5095061;28;20032;-82
2023/09/27 03:12:03;;;;;;;3.72;1.83;;;;;;;;;;5093131;28;20036;-82
2023/09/27 03:14:29;;;;;;;5.80;1.75;;;;;;;;;;5092277;28;20032;-79
2023/09/27 03:16:55;;;;;;;2.72;1.52;;;;;;;;;;5095616;28;20057;-81
2023/09/27 03:19:22;;;;;;;4.65;2.20;;;;;;;;;;5095212;28;20044;-82
2023/09/27 03:21:48;;;;;;;3.33;1.67;;;;;;;;;;5095812;28;20464;-80
2023/09/27 03:24:14;;;;;;;3.60;1.90;;;;;;;;;;5095892;28;20055;-79
2023/09/27 03:26:40;;;;;;;8.15;1.80;;;;;;;;;;5095565;28;20535;-80
2023/09/27 03:29:06;;;;;;;2.70;1.38;;;;;;;;;;5095763;28;20046;-83
2023/09/27 03:31:32;;;;;;;3.15;1.65;;;;;;;;;;5095786;28;20051;-83
2023/09/27 03:33:58;;;;;;;4.00;1.58;;;;;;;;;;5096586;28;20065;-80
2023/09/27 03:36:25;;;;;;;5.70;1.60;;;;;;;;;;5097187;28;20026;-80
2023/09/27 03:38:51;;;;;;;5.10;1.80;;;;;;;;;;5095286;28;20123;-81
2023/09/27 03:41:17;;;;;;;5.18;2.20;;;;;;;;;;5095420;28;20541;-82
2023/09/27 03:43:43;;;;;;;6.70;2.65;;;;;;;;;;5095489;28;20025;-81
2023/09/27 03:46:09;;;;;;;3.58;2.10;;;;;;;;;;5095194;28;20114;-79
2023/09/27 03:48:35;;;;;;;2.95;1.48;;;;;;;;;;5095287;28;20059;-81
2023/09/27 03:51:01;;;;;;;4.95;2.15;;;;;;;;;;5095410;28;20426;-80
2023/09/27 03:53:27;;;;;;;6.03;1.88;;;;;;;;;;5096111;28;20476;-79
2023/09/27 03:55:53;;;;;;;4.50;1.70;;;;;;;;;;5095282;28;20457;-80
2023/09/27 03:58:20;;;;;;;3.10;1.58;;;;;;;;;;5095537;28;20464;-81
2023/09/27 04:00:47;;;;;;;2.80;1.50;;;;;;;;;;5095068;28;20020;-82
2023/09/27 04:03:13;;;;;;;4.25;1.70;;;;;;;;;;5096780;28;20372;-80
2023/09/27 04:05:39;;;;;;;6.80;1.65;;;;;;;;;;5095129;28;20024;-82
2023/09/27 04:08:05;;;;;;;6.40;2.10;;;;;;;;;;5095807;28;20028;-82
2023/09/27 04:10:31;;;;;;;3.30;1.52;;;;;;;;;;5095764;28;20383;-83
2023/09/27 04:12:58;;;;;;;4.03;1.92;;;;;;;;;;5095577;28;20048;-83
2023/09/27 04:15:24;;;;;;;2.80;1.50;;;;;;;;;;5095698;28;20020;-81
2023/09/27 04:17:50;;;;;;;3.47;1.65;;;;;;;;;;5094798;28;20036;-82
2023/09/27 04:20:18;;;;;;;3.35;1.77;;;;;;;;;;5094928;28;20051;-81
2023/09/27 04:22:48;;;;;;;3.25;1.90;;;;;;;;;;5094264;28;20419;-82
2023/09/27 04:25:15;;;;;;;4.65;1.95;;;;;;;;;;5094803;28;20046;-82
2023/09/27 04:27:46;;;;;;;4.32;1.60;;;;;;;;;;5094701;28;20468;-83
2023/09/27 04:30:18;;;;;;;7.13;2.72;;;;;;;;;;5094518;28;20097;-83
2023/09/27 04:32:45;;;;;;;3.40;1.65;;;;;;;;;;5094390;28;20032;-83
2023/09/27 04:35:13;;;;;;;4.45;1.70;;;;;;;;;;5095656;28;20093;-81
2023/09/27 04:37:39;;;;;;;4.32;1.48;;;;;;;;;;5094330;28;20365;-82
2023/09/27 04:40:15;;;;;;;4.80;2.10;;;;;;;;;;5094194;28;20023;-81
2023/09/27 04:42:41;;;;;;;4.10;1.98;;;;;;;;;;5094074;28;20020;-84
2023/09/27 04:45:09;;;;;;;5.32;2.17;;;;;;;;;;5094174;28;20024;-83
2023/09/27 04:47:35;;;;;;;5.63;1.60;;;;;;;;;;5094210;28;20479;-81
2023/09/27 04:50:02;;;;;;;3.10;1.52;;;;;;;;;;5094043;28;20039;-80
2023/09/27 04:52:28;;;;;;;6.80;2.15;;;;;;;;;;5095344;28;20084;-80
2023/09/27 04:54:55;;;;;;;6.40;1.88;;;;;;;;;;5094460;28;20513;-81
2023/09/27 04:57:21;;;;;;;3.55;2.08;;;;;;;;;;5094592;28;20029;-81
2023/09/27 04:59:48;;;;;;;5.95;2.00;;;;;;;;;;5095347;28;20020;-81
2023/09/27 05:02:14;;;;;;;3.70;1.98;;;;;;;;;;5095245;28;20024;-81
2023/09/27 05:04:40;;;;;;;7.40;2.85;;;;;;;;;;5094790;28;20028;-82
2023/09/27 05:07:06;;;;;;;4.40;2.13;;;;;;;;;;5095584;28;20020;-81
2023/09/27 05:09:32;;;;;;;4.28;1.77;;;;;;;;;;5093815;28;20027;-80
2023/09/27 05:11:59;;;;;;;3.92;2.00;;;;;;;;;;5093480;28;20024;-81
2023/09/27 05:14:25;;;;;;;9.80;2.88;;;;;;;;;;5094495;28;20024;-83
2023/09/27 05:16:51;;;;;;;4.57;2.30;;;;;;;;;;5093503;28;20020;-82
2023/09/27 05:19:17;;;;;;;4.20;2.10;;;;;;;;;;5093276;28;20048;-82
2023/09/27 05:21:43;;;;;;;6.35;2.10;;;;;;;;;;5093578;28;20111;-82
2023/09/27 05:24:09;;;;;;;7.45;2.13;;;;;;;;;;5094144;28;20048;-82
2023/09/27 05:26:35;;;;;;;4.53;2.17;;;;;;;;;;5093453;28;20028;-82
2023/09/27 05:29:03;;;;;;;3.88;1.98;;;;;;;;;;5094491;28;20042;-82
2023/09/27 05:31:29;;;;;;;4.72;1.95;;;;;;;;;;5093017;28;20024;-83
2023/09/27 05:33:55;;;;;;;3.08;1.63;;;;;;;;;;5094667;28;20024;-81
2023/09/27 05:36:21;;;;;;;7.95;2.50;;;;;;;;;;5093539;28;20024;-84
2023/09/27 05:38:47;;;;;;;3.42;1.75;;;;;;;;;;5092490;28;20066;-82
2023/09/27 05:41:14;;;;;;;3.95;2.08;;;;;;;;;;5092922;28;20027;-83
2023/09/27 05:43:40;;;;;;;4.60;2.22;;;;;;;;;;5093140;28;20080;-84
2023/09/27 05:46:06;;;;;;;4.90;2.53;;;;;;;;;;5093003;28;20325;-82
2023/09/27 05:48:32;;;;;;;5.35;1.63;;;;;;;;;;5093053;28;20020;-84
2023/09/27 05:50:59;;;;;;;3.88;2.40;;;;;;;;;;5094462;28;20242;-83
2023/09/27 05:53:25;;;;;;;5.75;2.20;;;;;;;;;;5092897;28;20059;-82
2023/09/27 05:55:52;;;;;;;5.60;1.63;;;;;;;;;;5093532;28;20016;-82
2023/09/27 05:58:19;;;;;;;4.22;1.83;;;;;;;;;;5092969;28;20390;-82
2023/09/27 06:00:47;;;;;;;4.25;2.03;;;;;;;;;;5092524;28;20031;-79
2023/09/27 06:03:14;;;;;;;5.72;2.00;;;;;;;;;;5092642;28;20024;-80
2023/09/27 06:05:40;;;;;;;3.75;1.70;;;;;;;;;;5093973;28;20027;-80
2023/09/27 06:08:06;;;;;;;6.85;1.95;;;;;;;;;;5092419;28;20021;-80
2023/09/27 06:10:33;;;;;;;3.20;1.80;;;;;;;;;;5092637;28;20463;-79
2023/09/27 06:12:59;;;;;;;4.20;1.92;;;;;;;;;;5092275;28;20443;-79
2023/09/27 06:15:26;;;;;;;3.22;1.60;;;;;;;;;;5092295;28;20055;-81
2023/09/27 06:17:52;;;;;;;4.07;2.30;;;;;;;;;;5092550;28;20028;-79
2023/09/27 06:20:22;;;;;;;2.85;2.03;;;;;;;;;;5092054;28;20203;-80
2023/09/27 06:22:49;;;;;;;5.05;1.92;;;;;;;;;;5092604;28;20020;-81
2023/09/27 06:25:16;;;;;;;4.88;1.75;;;;;;;;;;5092450;28;20490;-80
2023/09/27 06:27:42;;;;;;;3.17;1.80;;;;;;;;;;5092117;28;20109;-81
2023/09/27 06:30:08;;;;;;;5.38;2.15;;;;;;;;;;5092516;28;20032;-82
2023/09/27 06:32:37;;;;;;;4.18;2.13;;;;;;;;;;5092659;28;20028;-81
2023/09/27 06:35:12;;;;;;;7.05;2.08;;;;;;;;;;5092147;28;20587;-79
2023/09/27 06:37:43;;;;;;;2.78;1.50;;;;;;;;;;5093929;28;20035;-80
2023/09/27 06:40:13;;;;;;;3.45;1.70;;;;;;;;;;5092629;28;20027;-77
2023/09/27 06:42:39;;;;;;;5.07;2.25;;;;;;;;;;5091906;28;20020;-78
2023/09/27 06:45:07;;;;;;;3.28;1.45;;;;;;;;;;5092354;28;20024;-78
2023/09/27 06:47:35;;;;;;;2.78;1.80;;;;;;;;;;5092278;28;20027;-78
2023/09/27 06:50:03;;;;;;;3.38;1.63;;;;;;;;;;5093201;28;20024;-80
2023/09/27 06:52:29;;;;;;;2.75;1.50;;;;;;;;;;5095571;28;20379;-79
2023/09/27 06:54:55;;;;;;;4.70;1.83;;;;;;;;;;5095780;28;20085;-79
2023/09/27 06:57:21;;;;;;;6.03;1.90;;;;;;;;;;5104678;28;20033;-80
2023/09/27 06:59:48;;;;;;;5.55;1.75;;;;;;;;;;5121593;28;20019;-79
2023/09/27 07:02:14;;;;;;;4.15;2.28;;;;;;;;;;5103322;28;20035;-79
2023/09/27 07:04:42;;;;;;;4.07;1.60;;;;;;;;;;5101735;28;20480;-80
2023/09/27 07:07:09;;;;;;;6.13;1.75;;;;;;;;;;5097855;28;20031;-78
2023/09/27 07:09:35;;;;;;;3.45;1.60;;;;;;;;;;5095964;28;20026;-80
2023/09/27 07:12:02;;;;;;;3.25;1.83;;;;;;;;;;5095823;28;20016;-80
2023/09/27 07:14:28;;;;;;;4.97;2.03;;;;;;;;;;5095665;28;20017;-80
2023/09/27 07:16:54;;;;;;;3.58;1.73;;;;;;;;;;5096427;28;20059;-80
2023/09/27 07:19:21;;;;;;;4.75;2.13;;;;;;;;;;5095220;28;20052;-78
2023/09/27 07:21:48;;;;;;;6.22;2.00;;;;;;;;;;5097030;28;20020;-79
2023/09/27 07:24:14;;;;;;;5.07;1.70;;;;;;;;;;5095246;28;20031;-79
2023/09/27 07:26:41;;;;;;;3.35;1.63;;;;;;;;;;5095425;28;20099;-79
2023/09/27 07:29:08;;;;;;;4.10;1.98;;;;;;;;;;5095835;28;20119;-78
2023/09/27 07:31:35;;;;;;;3.75;2.08;;;;;;;;;;5095204;28;20115;-79
2023/09/27 07:34:01;;;;;;;3.78;1.90;;;;;;;;;;5096634;28;20020;-78
2023/09/27 07:36:27;;;;;;;4.25;2.05;;;;;;;;;;5096636;28;20017;-78
2023/09/27 07:38:58;;;;;;;3.45;1.85;;;;;;;;;;5096241;28;20056;-79
2023/09/27 07:41:25;;;;;;;4.60;2.00;;;;;;;;;;5101396;28;20024;-78
2023/09/27 07:43:52;;;;;;;7.07;2.30;;;;;;;;;;5102228;28;20020;-79
2023/09/27 07:46:19;;;;;;;4.78;2.45;;;;;;;;;;5095388;28;20069;-79
2023/09/27 07:48:45;;;;;;;3.10;1.70;;;;;;;;;;5095065;28;20058;-80
2023/09/27 07:51:12;;;;;;;3.28;1.58;;;;;;;;;;5095231;28;20467;-80
2023/09/27 07:53:38;;;;;;;5.00;1.80;;;;;;;;;;5095101;28;20498;-80
2023/09/27 07:56:06;;;;;;;5.78;2.30;;;;;;;;;;5095240;28;20030;-80
2023/09/27 07:58:34;;;;;;;2.60;1.52;;;;;;;;;;5094955;28;20023;-79
2023/09/27 08:01:00;;;;;;;3.13;1.98;;;;;;;;;;5095303;28;20048;-78
2023/09/27 08:03:27;;;;;;;7.28;1.98;;;;;;;;;;5096360;28;20081;-80
2023/09/27 08:05:53;;;;;;;3.28;1.73;;;;;;;;;;5094764;28;20107;-80
2023/09/27 08:08:19;;;;;;;2.70;1.50;;;;;;;;;;5094851;28;20414;-81
2023/09/27 08:10:47;;;;;;;6.43;1.83;;;;;;;;;;5094955;28;20024;-81
2023/09/27 08:13:14;;;;;;;4.30;1.42;;;;;;;;;;5094454;28;20016;-81
2023/09/27 08:15:49;;;;;;;3.58;1.50;;;;;;;;;;5094986;28;20020;-80
2023/09/27 08:18:15;;;;;;;5.82;1.63;;;;;;;;;;5093641;28;20480;-81
2023/09/27 08:20:41;;;;;;;3.33;1.90;;;;;;;;;;5094028;28;20032;-81
2023/09/27 08:23:08;;;;;;;3.03;1.70;;;;;;;;;;5094244;28;20020;-81
2023/09/27 08:25:36;;;;;;;2.55;1.35;;;;;;;;;;5093085;28;20024;-80
2023/09/27 08:28:03;;;;;;;2.40;1.25;;;;;;;;;;5093861;28;20024;-81
2023/09/27 08:30:29;;;;;;;3.17;1.55;;;;;;;;;;5080839;28;20116;-80
2023/09/27 08:32:55;;;;;;;2.55;1.40;;;;;;;;;;5073891;28;20024;-82
2023/09/27 08:35:21;;;;;;;2.58;1.40;;;;;;;;;;5074233;28;20388;-79
2023/09/27 08:37:47;;;;;;;2.55;1.33;;;;;;;;;;5074304;28;20020;-80
2023/09/27 08:40:14;;;;;;;4.88;1.38;;;;;;;;;;5073573;28;20020;-80
2023/09/27 08:42:41;;;;;;;2.65;1.40;;;;;;;;;;5075223;28;20017;-80
2023/09/27 08:45:18;;;;;;;3.00;1.63;;;;;;;;;;5092842;28;20024;-83
2023/09/27 08:47:45;;;;;;;1.77;1.10;;;;;;;;;;5080604;28;20391;-81
2023/09/27 08:50:13;;;;;;;4.10;1.63;;;;;;;;;;5074158;28;20024;-81
2023/09/27 08:52:42;;;;;;;3.35;1.80;;;;;;;;;;5073519;28;20363;-80
2023/09/27 08:55:08;;;;;;;1.92;1.17;;;;;;;;;;5075053;28;20029;-80
2023/09/27 08:57:36;;;;;;;3.63;1.88;;;;;;;;;;5073584;28;20073;-84
2023/09/27 09:00:13;;;;;;;3.25;1.63;;;;;;;;;;5080766;28;20103;-84
2023/09/27 09:02:41;;;;;;;4.82;2.30;;;;;;;;;;5093829;28;20028;-83
2023/09/27 09:05:07;;;;;;;2.70;1.58;;;;;;;;;;5094494;28;20028;-84
2023/09/27 09:07:33;;;;;;;5.00;2.58;;;;;;;;;;5094377;28;20027;-83
2023/09/27 09:10:00;;;;;;;4.05;1.60;;;;;;;;;;5095469;28;20024;-83
2023/09/27 09:12:26;;;;;;;2.40;1.48;;;;;;;;;;5094956;28;20024;-81
2023/09/27 09:14:54;;;;;;;2.38;1.33;;;;;;;;;;5101433;28;20016;-82
2023/09/27 09:17:25;;;;;;;5.30;1.40;;;;;;;;;;5095366;28;20077;-81
2023/09/27 09:20:26;;;;;;;6.93;1.50;;;;;;;;;;5090506;28;20050;-82
2023/09/27 09:22:57;;;;;;;2.35;1.35;;;;;;;;;;5092934;28;20016;-83
2023/09/27 09:25:23;;;;;;;2.72;1.60;;;;;;;;;;5093466;28;20107;-81
2023/09/27 09:28:08;;;;;;;5.97;1.50;;;;;;;;;;5081412;28;20032;-81
2023/09/27 09:30:39;;;;;;;4.90;2.38;;;;;;;;;;5089441;28;20081;-85
2023/09/27 09:33:21;;;;;;;5.10;1.48;;;;;;;;;;5078190;28;20024;-81
2023/09/27 09:35:47;;;;;;;4.93;2.17;;;;;;;;;;5081502;28;20031;-81
2023/09/27 09:38:14;;;;;;;2.53;1.25;;;;;;;;;;5087745;28;20047;-81
2023/09/27 09:40:53;;;;;;;3.95;1.77;;;;;;;;;;5076026;28;20027;-83
2023/09/27 09:43:36;;;;;;;4.15;1.70;;;;;;;;;;5086328;28;20023;-82
2023/09/27 09:46:03;;;;;;;;;;;;;;;;;;5073371;28;20025;-81
2023/09/27 09:48:30;;;;;;;2.60;0.98;;;;;;;;;;5089216;28;19912;-81
2023/09/27 09:51:06;;;;;;;1.55;0.93;;;;;;;;;;5076497;28;20024;-82
2023/09/27 09:53:35;;;;;;;3.60;1.52;;;;;;;;;;5083439;28;20024;-82
2023/09/27 09:56:02;;;;;;;2.58;1.20;;;;;;;;;;5086302;28;20455;-83
2023/09/27 09:58:37;;;;;;;2.88;1.45;;;;;;;;;;5076270;28;20115;-83
2023/09/27 10:01:03;;;;;;;3.88;2.17;;;;;;;;;;5087623;28;20016;-83
2023/09/27 10:03:33;;;;;;;2.00;1.10;;;;;;;;;;5081314;28;20012;-84
2023/09/27 10:06:04;;;;;;;1.55;1.02;;;;;;;;;;5079673;28;20024;-81
2023/09/27 10:08:34;;;;;;;3.25;1.58;;;;;;;;;;5089223;28;20024;-85
2023/09/27 10:11:04;;;;;;;1.58;1.05;;;;;;;;;;5077210;28;20027;-83
2023/09/27 10:13:35;;;;;;;1.75;1.20;;;;;;;;;;5083718;28;20070;-81
2023/09/27 10:16:01;;;;;;;1.50;0.85;;;;;;;;;;5085910;28;20017;-83
2023/09/27 10:18:38;;;;;;;3.22;1.00;;;;;;;;;;5075426;28;20053;-83
2023/09/27 10:21:08;;;;;;;2.08;1.00;;;;;;;;;;5087566;28;20012;-83
2023/09/27 10:23:37;;;;;;;2.38;1.23;;;;;;;;;;5082315;28;20103;-83
2023/09/27 10:26:33;;;;;;;4.68;1.60;;;;;;;;;;5091335;28;20024;-78
2023/09/27 10:29:06;;;;;;;3.92;1.70;;;;;;;;;;5048096;28;20037;-80
2023/09/27 10:31:33;;;;;;;1.95;1.05;;;;;;;;;;5055439;28;20032;-81
2023/09/27 10:33:59;;;;;;;2.85;1.00;;;;;;;;;;5050722;28;20029;-82
2023/09/27 10:36:25;;;;;;;2.90;1.17;;;;;;;;;;5058396;28;20074;-81
2023/09/27 10:38:51;;;;;;;1.58;0.90;;;;;;;;;;5057642;28;20067;-82
2023/09/27 10:41:32;;;;;;;1.88;0.90;;;;;;;;;;5058026;28;20186;-81
2023/09/27 10:43:59;;;;;;;3.70;1.20;;;;;;;;;;5058177;28;20033;-81
2023/09/27 10:46:25;;;;;;;2.75;1.20;;;;;;;;;;5057705;28;20163;-81
2023/09/27 10:48:55;;;;;;;1.50;0.90;;;;;;;;;;5058224;28;20446;-81
2023/09/27 10:51:21;;;;;;;1.70;0.85;;;;;;;;;;5082783;28;20029;-82
2023/09/27 10:53:48;;;;;;;2.38;1.20;;;;;;;;;;5082357;28;20028;-81
2023/09/27 10:56:15;;;;;;;2.88;1.08;;;;;;;;;;5081666;28;20096;-82
2023/09/27 10:58:50;;;;;;;1.45;0.75;;;;;;;;;;5080640;28;20040;-80
2023/09/27 11:01:20;;;;;;;2.83;1.52;;;;;;;;;;5057712;28;20111;-82
2023/09/27 11:03:46;;;;;;;3.35;1.52;;;;;;;;;;5057566;28;20028;-82
2023/09/27 11:06:14;;;;;;;2.53;1.35;;;;;;;;;;5089969;28;20028;-80
2023/09/27 11:08:41;;;;;;;3.10;1.60;;;;;;;;;;5093020;28;20093;-80
2023/09/27 11:11:07;;;;;;;3.53;1.88;;;;;;;;;;5081033;28;20028;-81
2023/09/27 11:13:35;;;;;;;4.63;1.95;;;;;;;;;;5085791;28;20013;-82
2023/09/27 11:16:11;;;;;;;5.78;1.67;;;;;;;;;;5088274;28;20024;-81
2023/09/27 11:18:46;;;;;;;3.22;1.60;;;;;;;;;;5078184;28;20045;-80
2023/09/27 11:21:13;;;;;;;3.38;1.50;;;;;;;;;;5088823;28;20017;-80
2023/09/27 11:23:52;;;;;;;4.35;2.05;;;;;;;;;;5086685;28;20028;-81
2023/09/27 11:26:21;;;;;;;3.33;1.45;;;;;;;;;;5079785;28;20020;-79
2023/09/27 11:28:57;;;;;;;6.20;1.67;;;;;;;;;;5091389;28;20020;-81
2023/09/27 11:31:24;;;;;;;4.22;1.45;;;;;;;;;;5082992;28;20115;-81
2023/09/27 11:33:50;;;;;;;3.65;1.60;;;;;;;;;;5083233;28;20423;-80
2023/09/27 11:36:16;;;;;;;2.45;1.50;;;;;;;;;;5091305;28;20486;-79
2023/09/27 11:38:52;;;;;;;2.95;1.50;;;;;;;;;;5078195;28;20032;-80
2023/09/27 11:41:18;;;;;;;3.85;2.25;;;;;;;;;;5087769;28;20020;-82
2023/09/27 11:43:45;;;;;;;5.18;2.05;;;;;;;;;;5086862;28;20368;-82
2023/09/27 11:46:11;;;;;;;3.40;1.80;;;;;;;;;;5080490;28;20029;-82
2023/09/27 11:48:39;;;;;;;4.03;2.35;;;;;;;;;;5074951;28;20443;-80
2023/09/27 11:51:05;;;;;;;3.67;1.70;;;;;;;;;;5081496;28;20024;-81
2023/09/27 11:53:31;;;;;;;2.47;1.27;;;;;;;;;;5085422;28;20012;-82
2023/09/27 11:55:59;;;;;;;5.28;1.73;;;;;;;;;;5087074;28;20028;-81
2023/09/27 11:58:26;;;;;;;3.83;2.13;;;;;;;;;;5078242;28;20124;-81
2023/09/27 12:00:52;;;;;;;3.42;1.90;;;;;;;;;;5090811;28;20052;-81
2023/09/27 12:03:18;;;;;;;4.45;1.65;;;;;;;;;;5081265;28;20016;-81
2023/09/27 12:05:44;;;;;;;5.55;1.85;;;;;;;;;;5083461;28;20513;-81
2023/09/27 12:08:10;;;;;;;4.68;3.08;;;;;;;;;;5088765;28;20035;-80
2023/09/27 12:10:37;;;;;;;4.15;2.17;;;;;;;;;;5077198;28;20023;-80
2023/09/27 12:13:05;;;;;;;4.03;2.22;;;;;;;;;;5093938;28;20024;-80
2023/09/27 12:15:31;;;;;;;10.98;2.00;;;;;;;;;;5085152;28;20479;-79
2023/09/27 12:17:57;;;;;;;2.83;1.50;;;;;;;;;;5086479;28;20031;-80
2023/09/27 12:20:27;;;;;;;4.72;1.90;;;;;;;;;;5077781;28;20049;-79
2023/09/27 12:22:53;;;;;;;8.00;2.67;;;;;;;;;;5093671;28;20117;-80
2023/09/27 12:25:19;;;;;;;4.55;1.90;;;;;;;;;;5095059;28;20034;-79
2023/09/27 12:27:45;;;;;;;5.22;2.40;;;;;;;;;;5082814;28;20035;-79
2023/09/27 12:30:12;;;;;;;4.47;1.70;;;;;;;;;;5088518;28;20471;-78
2023/09/27 12:32:38;;;;;;;3.67;2.08;;;;;;;;;;5076473;28;20420;-80
2023/09/27 12:35:05;;;;;;;5.20;1.95;;;;;;;;;;5088457;28;20021;-80
2023/09/27 12:37:31;;;;;;;3.05;1.60;;;;;;;;;;5084849;28;20024;-79
2023/09/27 12:39:57;;;;;;;2.80;1.50;;;;;;;;;;5093795;28;20185;-80
2023/09/27 12:42:23;;;;;;;4.00;1.63;;;;;;;;;;5077418;28;20021;-79
2023/09/27 12:44:49;;;;;;;3.30;1.48;;;;;;;;;;5090928;28;20024;-80
2023/09/27 12:47:17;;;;;;;7.43;2.00;;;;;;;;;;5080055;28;20020;-79
2023/09/27 12:49:43;;;;;;;4.30;2.60;;;;;;;;;;5081989;28;20021;-79
2023/09/27 12:52:09;;;;;;;4.20;2.20;;;;;;;;;;5086556;28;20027;-79
2023/09/27 12:54:35;;;;;;;3.15;1.75;;;;;;;;;;5093576;28;20078;-79
2023/09/27 12:57:02;;;;;;;5.60;1.95;;;;;;;;;;5090742;28;20533;-79
2023/09/27 12:59:28;;;;;;;3.15;1.48;;;;;;;;;;5074445;28;20056;-79
2023/09/27 13:01:55;;;;;;;3.40;1.67;;;;;;;;;;5090029;28;20016;-80
2023/09/27 13:04:21;;;;;;;1.98;1.20;;;;;;;;;;5080050;28;20069;-79
2023/09/27 13:06:48;;;;;;;3.17;1.40;;;;;;;;;;5082381;28;20024;-79
2023/09/27 13:09:17;;;;;;;7.10;2.20;;;;;;;;;;5087681;28;20023;-79
2023/09/27 13:11:43;;;;;;;5.75;2.97;;;;;;;;;;5076705;28;20096;-79
2023/09/27 13:14:09;;;;;;;10.18;4.47;;;;;;;;;;5090257;28;20059;-80
2023/09/27 13:16:35;;;;;;;3.45;2.10;;;;;;;;;;5082621;28;20038;-80
2023/09/27 13:19:01;;;;;;;3.28;1.60;;;;;;;;;;5080675;28;20106;-80
2023/09/27 13:21:27;;;;;;;3.58;1.60;;;;;;;;;;5088349;28;20122;-79
2023/09/27 13:23:53;;;;;;;4.18;1.27;;;;;;;;;;5076087;28;20017;-78
2023/09/27 13:26:19;;;;;;;2.85;1.30;;;;;;;;;;5086396;28;20062;-79
2023/09/27 13:28:46;;;;;;;3.83;1.50;;;;;;;;;;5082431;28;20031;-79
2023/09/27 13:31:12;;;;;;;2.63;1.33;;;;;;;;;;5078767;28;20028;-79
2023/09/27 13:33:38;;;;;;;3.15;1.38;;;;;;;;;;5088966;28;20378;-79
2023/09/27 13:36:04;;;;;;;2.88;1.40;;;;;;;;;;5078518;28;20018;-81
2023/09/27 13:38:30;;;;;;;2.80;1.40;;;;;;;;;;5095078;28;20086;-80
2023/09/27 13:40:57;;;;;;;1.83;1.08;;;;;;;;;;5087869;28;20020;-79
2023/09/27 13:43:23;;;;;;;3.90;1.13;;;;;;;;;;5080821;28;20048;-79
2023/09/27 13:45:49;;;;;;;2.15;1.33;;;;;;;;;;5092154;28;20093;-79
2023/09/27 13:48:15;;;;;;;3.38;1.40;;;;;;;;;;5077825;28;20035;-81
2023/09/27 13:50:41;;;;;;;5.15;1.27;;;;;;;;;;5082833;28;20024;-79
2023/09/27 13:53:07;;;;;;;6.00;1.08;;;;;;;;;;5084854;28;20027;-80
2023/09/27 13:55:33;;;;;;;3.03;1.40;;;;;;;;;;5077317;28;20033;-79
2023/09/27 13:57:59;;;;;;;2.38;1.05;;;;;;;;;;5088946;28;20029;-81
2023/09/27 14:00:26;;;;;;;2.20;1.20;;;;;;;;;;5079234;28;20046;-79
2023/09/27 14:02:52;;;;;;;2.10;1.02;;;;;;;;;;5092515;28;20476;-80
2023/09/27 14:05:18;;;;;;;4.75;1.40;;;;;;;;;;5077967;28;20036;-82
2023/09/27 14:07:44;;;;;;;2.03;1.08;;;;;;;;;;5088866;28;20036;-79
2023/09/27 14:10:10;;;;;;;3.13;1.38;;;;;;;;;;5077381;28;20024;-79
2023/09/27 14:12:37;;;;;;;2.20;1.20;;;;;;;;;;5092859;28;20416;-79
2023/09/27 14:15:03;;;;;;;2.97;1.40;;;;;;;;;;5079602;28;20024;-79
2023/09/27 14:17:29;;;;;;;3.97;1.27;;;;;;;;;;5089299;28;20464;-80
2023/09/27 14:19:56;;;;;;;2.72;1.40;;;;;;;;;;5074876;28;20105;-79
2023/09/27 14:22:22;;;;;;;8.52;3.47;;;;;;;;;;5085755;28;20486;-80
2023/09/27 14:24:48;;;;;;;5.38;2.00;;;;;;;;;;5082127;28;20472;-79
2023/09/27 14:27:14;;;;;;;3.28;1.80;;;;;;;;;;5078082;28;20027;-80
2023/09/27 14:29:41;;;;;;;3.30;1.77;;;;;;;;;;5072655;28;20078;-80
2023/09/27 14:32:08;;;;;;;9.30;5.43;;;;;;;;;;5087479;28;20490;-80
2023/09/27 14:34:39;;;;;;;5.28;2.20;;;;;;;;;;5080057;28;20021;-79
2023/09/27 14:37:06;;;;;;;5.15;2.03;;;;;;;;;;5088789;28;20012;-81
2023/09/27 14:39:32;;;;;;;4.40;2.30;;;;;;;;;;5112110;28;20012;-80
2023/09/27 14:41:58;;;;;;;8.77;1.70;;;;;;;;;;5116484;28;20020;-80
2023/09/27 14:44:24;;;;;;;6.78;1.88;;;;;;;;;;5113283;28;20115;-80